Time;durP1;ratioP1;P1;durP2;ratioP2;P2;SDS_P1;SDS_P2;PMS_P1;PMS_P2;Temp;Humidity;BMP_temperature;BMP_pressure;BME280_temperature;BME280_humidity;BME280_pressure;Samples;Min_cycle;Max_cycle;Signal;HPM_P1;HPM_P2
2024/02/08 00:01:40;;;;;;;1.13;0.88;;;8.20;99.90;;;;;;5070565;28;20210;-75
2024/02/08 00:04:06;;;;;;;1.42;0.80;;;8.20;99.90;;;;;;5071805;28;20237;-75
2024/02/08 00:06:33;;;;;;;1.15;0.88;;;8.20;99.90;;;;;;5071978;28;20207;-75
2024/02/08 00:09:01;;;;;;;0.90;0.80;;;8.20;99.90;;;;;;5073080;28;20283;-75
2024/02/08 00:11:27;;;;;;;1.02;0.77;;;8.20;99.90;;;;;;5073056;28;20641;-75
2024/02/08 00:13:56;;;;;;;0.80;0.80;;;8.20;99.90;;;;;;5073135;28;20605;-75
2024/02/08 00:16:22;;;;;;;0.80;0.80;;;8.20;99.90;;;;;;5063096;28;20205;-75
2024/02/08 00:18:49;;;;;;;0.80;0.70;;;8.20;99.90;;;;;;5072959;28;20235;-75
2024/02/08 00:21:16;;;;;;;0.90;0.80;;;8.30;99.90;;;;;;5072590;28;20215;-75
2024/02/08 00:23:43;;;;;;;1.00;0.80;;;8.30;99.90;;;;;;5072637;28;20604;-75
2024/02/08 00:26:10;;;;;;;1.55;0.90;;;8.30;99.90;;;;;;5071946;28;20658;-75
2024/02/08 00:28:39;;;;;;;1.20;0.95;;;8.30;99.90;;;;;;5072661;28;20248;-75
2024/02/08 00:31:07;;;;;;;0.75;0.70;;;8.30;99.90;;;;;;5072488;28;20240;-75
2024/02/08 00:33:34;;;;;;;0.80;0.70;;;8.30;99.90;;;;;;5072524;28;20232;-75
2024/02/08 00:36:01;;;;;;;1.00;0.90;;;8.30;99.90;;;;;;5072262;28;20205;-75
2024/02/08 00:38:29;;;;;;;1.55;1.05;;;8.30;99.90;;;;;;5072758;28;20198;-75
2024/02/08 00:40:56;;;;;;;1.77;1.00;;;8.30;99.90;;;;;;5072280;28;20738;-75
2024/02/08 00:43:23;;;;;;;1.70;0.85;;;8.30;99.90;;;;;;5072315;28;20226;-75
2024/02/08 00:45:50;;;;;;;1.10;0.88;;;8.30;99.90;;;;;;5072408;28;20681;-75
2024/02/08 00:48:22;;;;;;;1.40;0.95;;;8.40;99.90;;;;;;5072402;28;20266;-75
2024/02/08 00:50:48;;;;;;;1.02;0.80;;;8.30;99.90;;;;;;5072408;28;20212;-75
2024/02/08 00:53:15;;;;;;;1.13;0.98;;;8.30;99.90;;;;;;5072188;28;20229;-75
2024/02/08 00:55:43;;;;;;;1.45;1.05;;;8.40;99.90;;;;;;5072106;28;20201;-75
2024/02/08 00:58:11;;;;;;;1.10;1.00;;;8.40;99.90;;;;;;5071794;28;20657;-75
2024/02/08 01:00:37;;;;;;;1.20;0.90;;;8.40;99.90;;;;;;5071979;28;20289;-75
2024/02/08 01:03:05;;;;;;;1.13;0.90;;;8.40;99.90;;;;;;5071957;28;20248;-75
2024/02/08 01:05:34;;;;;;;1.00;0.90;;;8.40;99.90;;;;;;5072091;28;20300;-75
2024/02/08 01:08:01;;;;;;;1.00;0.90;;;8.40;99.90;;;;;;5064598;28;20602;-75
2024/02/08 01:10:28;;;;;;;1.30;0.80;;;8.40;99.90;;;;;;5067858;28;20201;-75
2024/02/08 01:12:55;;;;;;;5.95;0.95;;;8.40;99.90;;;;;;5071676;28;20220;-75
2024/02/08 01:15:22;;;;;;;2.60;1.00;;;8.40;99.90;;;;;;5071863;28;20204;-75
2024/02/08 01:17:51;;;;;;;2.65;1.13;;;8.40;99.90;;;;;;5071688;28;20236;-75
2024/02/08 01:20:22;;;;;;;1.33;1.05;;;8.40;99.90;;;;;;5071594;28;20204;-75
2024/02/08 01:22:50;;;;;;;1.00;0.90;;;8.40;99.90;;;;;;5071599;28;20220;-75
2024/02/08 01:25:17;;;;;;;1.30;0.90;;;8.40;99.90;;;;;;5071566;28;20692;-75
2024/02/08 01:27:44;;;;;;;1.27;1.00;;;8.40;99.90;;;;;;5071259;28;20696;-75
2024/02/08 01:30:13;;;;;;;1.30;1.00;;;8.40;99.90;;;;;;5071469;28;20205;-75
2024/02/08 01:32:40;;;;;;;1.38;1.27;;;8.40;99.90;;;;;;5071219;28;20735;-75
2024/02/08 01:35:07;;;;;;;1.77;0.95;;;8.50;99.90;;;;;;5071585;28;20295;-75
2024/02/08 01:37:38;;;;;;;1.17;0.90;;;8.50;99.90;;;;;;5070080;28;20262;-75
2024/02/08 01:40:12;;;;;;;1.08;0.80;;;8.50;99.90;;;;;;5071048;28;20661;-75
2024/02/08 01:42:39;;;;;;;1.05;0.82;;;8.50;99.90;;;;;;5071157;28;20224;-75
2024/02/08 01:45:31;;;;;;;1.33;1.00;;;8.50;99.90;;;;;;5071216;28;20215;-75
2024/02/08 01:48:00;;;;;;;0.80;0.77;;;8.50;99.90;;;;;;5062338;28;20414;-75
2024/02/08 01:50:30;;;;;;;1.20;0.98;;;8.50;99.90;;;;;;5071055;28;20205;-75
2024/02/08 01:52:59;;;;;;;0.90;0.80;;;8.50;99.90;;;;;;5071147;28;20216;-75
2024/02/08 01:55:32;;;;;;;1.00;0.90;;;8.50;99.90;;;;;;5071045;28;20208;-75
2024/02/08 01:58:04;;;;;;;1.10;0.80;;;8.50;99.90;;;;;;5062275;28;20197;-75
2024/02/08 02:00:35;;;;;;;0.90;0.80;;;8.50;99.90;;;;;;5071223;28;20593;-75
2024/02/08 02:03:02;;;;;;;1.40;1.17;;;8.50;99.90;;;;;;5071082;28;20265;-75
2024/02/08 02:05:29;;;;;;;1.33;1.08;;;8.50;99.90;;;;;;5070886;28;20200;-74
2024/02/08 02:07:57;;;;;;;1.13;1.02;;;8.50;99.90;;;;;;5070567;28;20220;-75
2024/02/08 02:10:29;;;;;;;0.80;0.80;;;8.50;99.90;;;;;;5070831;28;20586;-75
2024/02/08 02:13:02;;;;;;;1.08;0.95;;;8.50;99.90;;;;;;5070698;28;20220;-75
2024/02/08 02:15:31;;;;;;;1.00;0.80;;;8.50;99.90;;;;;;5070820;28;20205;-75
2024/02/08 02:18:01;;;;;;;1.00;0.80;;;8.50;99.90;;;;;;5061135;28;20204;-75
2024/02/08 02:20:29;;;;;;;1.73;0.90;;;8.50;99.90;;;;;;5070740;28;20207;-75
2024/02/08 02:22:59;;;;;;;1.42;0.85;;;8.50;99.90;;;;;;5070730;28;20316;-75
2024/02/08 02:25:26;;;;;;;0.88;0.80;;;8.50;99.90;;;;;;5070945;28;20201;-75
2024/02/08 02:27:54;;;;;;;0.95;0.85;;;8.50;99.90;;;;;;5070686;28;20270;-75
2024/02/08 02:30:21;;;;;;;1.20;1.10;;;8.50;99.90;;;;;;5070494;28;20204;-75
2024/02/08 02:32:50;;;;;;;0.80;0.73;;;8.60;99.90;;;;;;5070700;28;20221;-75
2024/02/08 02:35:17;;;;;;;1.00;0.90;;;8.50;99.90;;;;;;5070608;28;20273;-75
2024/02/08 02:37:44;;;;;;;0.90;0.80;;;8.60;99.90;;;;;;5070256;28;20196;-75
2024/02/08 02:40:22;;;;;;;0.80;0.80;;;8.60;99.90;;;;;;5070674;28;20204;-75
2024/02/08 02:42:49;;;;;;;1.02;0.93;;;8.60;99.90;;;;;;5070662;28;20216;-75
2024/02/08 02:45:21;;;;;;;0.90;0.70;;;8.60;99.90;;;;;;5070616;28;20204;-75
2024/02/08 02:47:49;;;;;;;0.82;0.75;;;8.50;99.90;;;;;;5070253;28;20220;-75
2024/02/08 02:50:17;;;;;;;1.17;0.90;;;8.60;99.90;;;;;;5073138;28;20209;-75
2024/02/08 02:52:43;;;;;;;1.00;0.90;;;8.50;99.90;;;;;;5074341;28;20759;-75
2024/02/08 02:55:10;;;;;;;0.80;0.70;;;8.50;99.90;;;;;;5074734;28;20227;-75
2024/02/08 02:57:38;;;;;;;0.90;0.80;;;8.50;99.90;;;;;;5071304;28;20197;-75
2024/02/08 03:00:15;;;;;;;1.00;0.90;;;8.50;99.90;;;;;;5074480;28;20211;-75
2024/02/08 03:02:42;;;;;;;1.15;0.98;;;8.50;99.90;;;;;;5070000;28;20220;-75
2024/02/08 03:05:09;;;;;;;0.80;0.70;;;8.50;99.90;;;;;;5074651;28;20204;-75
2024/02/08 03:07:42;;;;;;;1.00;0.90;;;8.50;99.90;;;;;;5073656;28;20227;-75
2024/02/08 03:10:11;;;;;;;0.80;0.70;;;8.60;99.90;;;;;;5074347;28;20213;-75
2024/02/08 03:12:40;;;;;;;1.17;0.90;;;8.50;99.90;;;;;;5068500;28;20224;-75
2024/02/08 03:15:09;;;;;;;2.78;0.80;;;8.60;99.90;;;;;;5074406;28;20208;-75
2024/02/08 03:17:38;;;;;;;0.80;0.80;;;8.60;99.90;;;;;;5073610;28;20205;-75
2024/02/08 03:20:06;;;;;;;0.80;0.70;;;8.60;99.90;;;;;;5074186;28;20255;-75
2024/02/08 03:22:34;;;;;;;0.70;0.70;;;8.60;99.90;;;;;;5073443;28;20229;-75
2024/02/08 03:25:04;;;;;;;0.80;0.70;;;8.60;99.90;;;;;;5073898;28;20660;-75
2024/02/08 03:27:32;;;;;;;0.70;0.60;;;8.60;99.90;;;;;;5073663;28;20262;-75
2024/02/08 03:30:02;;;;;;;0.70;0.60;;;8.60;99.90;;;;;;5062883;28;20653;-75
2024/02/08 03:32:29;;;;;;;1.10;0.90;;;8.60;99.90;;;;;;5073527;28;20228;-75
2024/02/08 03:34:56;;;;;;;0.80;0.70;;;8.60;99.90;;;;;;5074047;28;20628;-75
2024/02/08 03:37:23;;;;;;;1.17;0.93;;;8.60;99.90;;;;;;5073239;28;20204;-75
2024/02/08 03:39:50;;;;;;;1.00;0.85;;;8.60;99.90;;;;;;5073586;28;20666;-75
2024/02/08 03:42:17;;;;;;;1.23;1.00;;;8.60;99.90;;;;;;5073567;28;20677;-75
2024/02/08 03:44:44;;;;;;;0.93;0.80;;;8.70;99.90;;;;;;5071513;28;20691;-75
2024/02/08 03:47:12;;;;;;;0.90;0.80;;;8.70;99.90;;;;;;5073321;28;20295;-75
2024/02/08 03:49:39;;;;;;;1.00;0.75;;;8.70;99.90;;;;;;5072971;28;20220;-75
2024/02/08 03:52:08;;;;;;;1.25;1.00;;;8.70;99.90;;;;;;5073482;28;20217;-75
2024/02/08 03:54:36;;;;;;;0.98;0.85;;;8.70;99.90;;;;;;5073220;28;20212;-75
2024/02/08 03:57:05;;;;;;;0.98;0.80;;;8.80;99.90;;;;;;5073211;28;20677;-75
2024/02/08 03:59:32;;;;;;;1.10;0.77;;;8.80;99.90;;;;;;5073152;28;20325;-75
2024/02/08 04:02:03;;;;;;;1.38;0.80;;;8.80;99.90;;;;;;5060512;28;20205;-75
2024/02/08 04:04:47;;;;;;;1.13;0.90;;;8.80;99.90;;;;;;5074091;28;20655;-75
2024/02/08 04:07:20;;;;;;;0.80;0.70;;;8.80;99.90;;;;;;5066148;28;20204;-74
2024/02/08 04:09:55;;;;;;;1.58;0.73;;;8.80;99.90;;;;;;5071592;28;20599;-75
2024/02/08 04:53:43;;;;;;;0.95;0.80;;;8.70;99.90;;;;;;5052540;28;20657;-76
2024/02/08 04:56:11;;;;;;;0.80;0.80;;;8.80;99.90;;;;;;5052627;28;20727;-76
2024/02/08 04:58:40;;;;;;;0.90;0.77;;;8.80;99.90;;;;;;5052100;28;20198;-76
2024/02/08 05:01:09;;;;;;;1.00;0.88;;;8.80;99.90;;;;;;5052168;28;20287;-75
2024/02/08 05:03:38;;;;;;;1.00;0.90;;;8.80;99.90;;;;;;5051766;28;20271;-74
2024/02/08 05:06:11;;;;;;;1.23;1.00;;;8.80;99.90;;;;;;5051457;28;20657;-74
2024/02/08 05:08:39;;;;;;;0.80;0.70;;;8.80;99.90;;;;;;5052713;28;20228;-74
2024/02/08 05:11:09;;;;;;;0.82;0.80;;;8.80;99.90;;;;;;5052648;28;20209;-74
2024/02/08 05:13:40;;;;;;;0.80;0.70;;;8.80;99.90;;;;;;5052546;28;20225;-74
2024/02/08 05:16:07;;;;;;;0.90;0.80;;;8.80;99.90;;;;;;5050287;28;20213;-74
2024/02/08 05:18:36;;;;;;;0.95;0.75;;;8.70;99.90;;;;;;5052476;28;20198;-73
2024/02/08 05:21:05;;;;;;;1.05;0.80;;;8.80;99.90;;;;;;5051859;28;20213;-74
2024/02/08 05:23:33;;;;;;;1.10;0.93;;;8.70;99.90;;;;;;5060162;28;20746;-73
2024/02/08 05:26:00;;;;;;;0.90;0.70;;;8.70;99.90;;;;;;5058299;28;20211;-74
2024/02/08 05:28:28;;;;;;;1.08;0.90;;;8.70;99.90;;;;;;5072232;28;20298;-74
2024/02/08 05:30:55;;;;;;;0.90;0.70;;;8.70;99.90;;;;;;5071557;28;20201;-74
2024/02/08 05:33:23;;;;;;;0.90;0.70;;;8.60;99.90;;;;;;5071710;28;20224;-74
2024/02/08 05:35:51;;;;;;;0.80;0.70;;;8.60;99.90;;;;;;5071257;28;20627;-74
2024/02/08 05:38:18;;;;;;;1.20;1.00;;;8.60;99.90;;;;;;5071786;28;20213;-74
2024/02/08 05:40:44;;;;;;;1.60;0.93;;;8.60;99.90;;;;;;5071282;28;20295;-74
2024/02/08 05:43:11;;;;;;;1.13;1.02;;;8.50;99.90;;;;;;5071896;28;20228;-74
2024/02/08 05:45:39;;;;;;;0.90;0.77;;;8.50;99.90;;;;;;5071341;28;20220;-74
2024/02/08 05:48:07;;;;;;;1.70;0.80;;;8.60;99.90;;;;;;5071199;28;20211;-74
2024/02/08 05:50:34;;;;;;;1.20;0.80;;;8.60;99.90;;;;;;5069771;28;20201;-74
2024/02/08 05:53:06;;;;;;;0.80;0.75;;;8.60;99.90;;;;;;5071387;28;20227;-74
2024/02/08 05:55:35;;;;;;;1.00;0.80;;;8.60;99.90;;;;;;5071045;28;20212;-74
2024/02/08 05:58:03;;;;;;;1.00;0.85;;;8.60;99.90;;;;;;5056903;28;20261;-74
2024/02/08 06:00:36;;;;;;;0.95;0.85;;;8.60;99.90;;;;;;5071011;28;20211;-74
2024/02/08 06:03:05;;;;;;;1.27;0.90;;;8.60;99.90;;;;;;5056914;28;20232;-74
2024/02/08 06:05:32;;;;;;;0.95;0.85;;;8.60;99.90;;;;;;5070800;28;20231;-74
2024/02/08 06:07:59;;;;;;;1.25;1.00;;;8.60;99.90;;;;;;5055622;28;20205;-74
2024/02/08 06:10:41;;;;;;;0.70;0.70;;;8.60;99.90;;;;;;5071174;28;20228;-74
2024/02/08 06:13:13;;;;;;;0.90;0.80;;;8.60;99.90;;;;;;5071216;28;20235;-75
2024/02/08 06:15:42;;;;;;;1.55;0.95;;;8.60;99.90;;;;;;5070627;28;20240;-74
2024/02/08 06:18:19;;;;;;;0.95;0.80;;;8.50;99.90;;;;;;5070083;28;20254;-74
2024/02/08 06:20:51;;;;;;;1.00;0.85;;;8.50;99.90;;;;;;5066775;28;20211;-74
2024/02/08 06:23:23;;;;;;;1.10;0.80;;;8.50;99.90;;;;;;5059853;28;20246;-74
2024/02/08 06:26:27;;;;;;;0.90;0.80;;;8.50;99.90;;;;;;5070398;28;20240;-75
2024/02/08 06:28:53;;;;;;;1.00;0.90;;;8.50;99.90;;;;;;5070281;28;20252;-74
2024/02/08 06:31:29;;;;;;;1.00;0.90;;;8.50;99.90;;;;;;5071133;28;20277;-74
2024/02/08 06:36:57;;;;;;;1.88;0.90;;;8.50;99.90;;;;;;5068912;28;20205;-74
2024/02/08 06:39:28;;;;;;;0.80;0.68;;;8.50;99.90;;;;;;5070815;28;20571;-74
2024/02/08 06:42:07;;;;;;;1.27;0.85;;;8.50;99.90;;;;;;5070468;28;20200;-74
2024/02/08 06:44:52;;;;;;;1.65;1.00;;;8.50;99.90;;;;;;5070537;28;20208;-74
2024/02/08 06:47:29;;;;;;;1.10;0.70;;;8.50;99.90;;;;;;5070490;28;20628;-74
2024/02/08 07:39:34;;;;;;;1.10;1.00;;;8.50;99.90;;;;;;5073971;28;20632;-74
2024/02/08 07:42:12;;;;;;;0.70;0.70;;;8.50;99.90;;;;;;5072697;28;20209;-75
2024/02/08 07:44:39;;;;;;;1.20;1.00;;;8.50;99.90;;;;;;5073673;28;20207;-74
2024/02/08 07:47:06;;;;;;;0.95;0.85;;;8.50;99.90;;;;;;5058988;28;20229;-74
2024/02/08 07:49:42;;;;;;;2.95;1.48;;;8.50;99.90;;;;;;5073443;28;20228;-74
2024/02/08 07:52:14;;;;;;;1.50;0.85;;;8.50;99.90;;;;;;5052899;28;20208;-75
2024/02/08 07:54:46;;;;;;;1.42;0.90;;;8.50;99.90;;;;;;5073339;28;20212;-74
2024/02/08 07:57:13;;;;;;;1.33;0.85;;;8.50;99.90;;;;;;5073210;28;20296;-74
2024/02/08 07:59:42;;;;;;;1.02;0.93;;;8.60;99.90;;;;;;5073498;28;20201;-74
2024/02/08 08:02:12;;;;;;;2.70;1.10;;;8.60;99.90;;;;;;5066430;28;20295;-74
2024/02/08 08:04:51;;;;;;;0.80;0.77;;;8.70;99.90;;;;;;5073324;28;20213;-74
2024/02/08 08:07:22;;;;;;;1.10;1.00;;;8.70;99.90;;;;;;5062106;28;20582;-74
2024/02/08 08:09:59;;;;;;;2.95;1.10;;;8.80;99.90;;;;;;5073089;28;20251;-74
2024/02/08 08:12:29;;;;;;;0.95;0.80;;;8.90;99.90;;;;;;5073136;28;20230;-74
2024/02/08 08:15:13;;;;;;;1.30;1.20;;;8.90;99.90;;;;;;5071007;28;20250;-74
2024/02/08 08:17:42;;;;;;;1.15;0.82;;;8.90;99.90;;;;;;5070162;28;20193;-74
2024/02/08 08:20:56;;;;;;;1.80;0.88;;;8.90;99.90;;;;;;5059566;28;20274;-74
2024/02/08 08:23:07;;;;;;;1.00;0.90;;;8.90;99.90;;;;;;5070845;28;20236;-74
2024/02/08 08:28:40;;;;;;;0.98;0.88;;;9.10;99.90;;;;;;5068420;28;20203;-74
2024/02/08 08:33:59;;;;;;;1.05;0.85;;;9.20;99.90;;;;;;5069405;28;20761;-75
2024/02/08 08:36:29;;;;;;;1.30;0.70;;;9.30;99.90;;;;;;5072544;28;20201;-74
2024/02/08 08:39:41;;;;;;;1.08;0.90;;;9.30;99.90;;;;;;5072346;28;20280;-74
2024/02/08 08:41:46;;;;;;;0.90;0.80;;;9.40;99.90;;;;;;5072397;28;20234;-74
2024/02/08 08:44:15;;;;;;;1.00;0.90;;;9.30;99.90;;;;;;5072752;28;20217;-73
2024/02/08 08:46:42;;;;;;;0.80;0.80;;;9.30;99.90;;;;;;5071716;28;20691;-74
2024/02/08 08:49:14;;;;;;;0.90;0.80;;;9.30;99.90;;;;;;5051828;28;20317;-73
2024/02/08 08:51:43;;;;;;;0.90;0.70;;;9.30;99.90;;;;;;5066823;28;20292;-73
2024/02/08 08:54:18;;;;;;;1.83;0.80;;;9.30;99.90;;;;;;5071246;28;20225;-74
2024/02/08 08:56:49;;;;;;;1.00;0.90;;;9.30;99.90;;;;;;5072006;28;20200;-75
2024/02/08 08:59:22;;;;;;;1.10;0.95;;;9.30;99.90;;;;;;5060008;28;20226;-75
2024/02/08 09:01:49;;;;;;;1.60;0.85;;;9.40;99.90;;;;;;5071793;28;20201;-74
2024/02/08 09:04:31;;;;;;;0.80;0.70;;;9.50;99.90;;;;;;5070880;28;20217;-74
2024/02/08 09:07:08;;;;;;;1.70;1.20;;;9.60;99.90;;;;;;5067502;28;20594;-74
2024/02/08 09:09:54;;;;;;;0.80;0.70;;;9.50;99.90;;;;;;5071235;28;20298;-72
2024/02/08 09:12:28;;;;;;;0.88;0.75;;;9.50;99.90;;;;;;5061459;28;20224;-72
2024/02/08 09:14:59;;;;;;;0.70;0.60;;;9.50;99.90;;;;;;5070603;28;20293;-74
2024/02/08 09:17:25;;;;;;;0.80;0.70;;;9.40;99.90;;;;;;5067328;28;20205;-74
2024/02/08 09:19:53;;;;;;;1.00;0.90;;;9.50;99.90;;;;;;5069910;28;20259;-74
2024/02/08 09:22:20;;;;;;;0.80;0.70;;;9.50;99.90;;;;;;5071309;28;20294;-74
2024/02/08 09:24:48;;;;;;;1.00;0.90;;;9.50;99.90;;;;;;5064958;28;20197;-74
2024/02/08 09:27:19;;;;;;;1.90;1.02;;;9.50;99.90;;;;;;5059220;28;20202;-74
2024/02/08 09:29:55;;;;;;;2.15;0.85;;;9.50;99.90;;;;;;5070459;28;20765;-74
2024/02/08 09:35:11;;;;;;;0.90;0.73;;;9.60;99.90;;;;;;5066673;28;20284;-74
2024/02/08 09:37:39;;;;;;;0.90;0.80;;;9.60;99.90;;;;;;5070811;28;20207;-74
2024/02/08 09:40:20;;;;;;;0.80;0.70;;;9.60;99.90;;;;;;5070032;28;20201;-74
2024/02/08 09:42:54;;;;;;;1.00;0.90;;;9.70;99.90;;;;;;5071052;28;20297;-74
2024/02/08 09:45:45;;;;;;;1.00;0.77;;;9.80;99.90;;;;;;5065549;28;20661;-74
2024/02/08 09:48:25;;;;;;;2.03;0.70;;;9.80;99.90;;;;;;5069368;28;20611;-74
2024/02/08 09:50:59;;;;;;;1.00;0.90;;;9.80;99.90;;;;;;5070509;28;20232;-73
2024/02/08 09:53:29;;;;;;;1.55;1.02;;;10.00;99.90;;;;;;5065577;28;20575;-74
2024/02/08 09:55:59;;;;;;;1.45;0.82;;;10.00;99.90;;;;;;5070165;28;20287;-73
2024/02/08 09:58:34;;;;;;;1.13;0.90;;;10.00;99.90;;;;;;5070225;28;20583;-73
2024/02/08 10:01:21;;;;;;;1.02;0.80;;;10.10;99.90;;;;;;5054814;28;20200;-73
2024/02/08 10:03:48;;;;;;;0.90;0.70;;;10.20;99.90;;;;;;5070159;28;20221;-73
2024/02/08 10:06:23;;;;;;;0.80;0.70;;;10.30;99.90;;;;;;5069810;28;20576;-73
2024/02/08 10:08:54;;;;;;;1.00;0.90;;;10.50;99.90;;;;;;5070423;28;20228;-73
2024/02/08 10:11:24;;;;;;;0.80;0.80;;;10.60;99.90;;;;;;5060429;28;20214;-73
2024/02/08 10:13:56;;;;;;;0.80;0.70;;;10.70;99.90;;;;;;5069930;28;20304;-73
2024/02/08 10:16:42;;;;;;;1.10;0.80;;;10.60;99.90;;;;;;5065647;28;20208;-74
2024/02/08 10:19:27;;;;;;;0.90;0.70;;;10.50;99.90;;;;;;5066988;28;20650;-73
2024/02/08 10:21:57;;;;;;;0.80;0.70;;;10.50;99.90;;;;;;5070541;28;20188;-73
2024/02/08 10:24:44;;;;;;;1.00;0.90;;;10.60;99.90;;;;;;5065244;28;20210;-74
2024/02/08 10:27:19;;;;;;;0.93;0.80;;;10.70;99.90;;;;;;5067465;28;20290;-74
2024/02/08 10:29:46;;;;;;;0.80;0.70;;;10.80;99.90;;;;;;5069942;28;20225;-74
2024/02/08 10:32:18;;;;;;;1.45;0.80;;;10.90;99.90;;;;;;5069687;28;20209;-74
2024/02/08 10:34:45;;;;;;;0.80;0.70;;;10.80;99.90;;;;;;5069827;28;20197;-74
2024/02/08 10:37:46;;;;;;;0.90;0.80;;;10.70;99.90;;;;;;5069859;28;20568;-74
2024/02/08 10:40:28;;;;;;;1.30;0.93;;;10.60;99.90;;;;;;5054536;28;20210;-74
2024/02/08 10:42:50;;;;;;;0.80;0.70;;;10.60;99.90;;;;;;5068506;28;20228;-74
2024/02/08 10:45:18;;;;;;;0.93;0.80;;;10.40;99.90;;;;;;5050617;28;20266;-74
2024/02/08 10:47:48;;;;;;;1.13;0.70;;;10.40;99.90;;;;;;5068513;28;20216;-74
2024/02/08 10:50:20;;;;;;;1.23;0.80;;;10.40;99.90;;;;;;5067374;28;20230;-74
2024/02/08 10:52:51;;;;;;;0.90;0.70;;;10.40;99.90;;;;;;5062185;28;20224;-74
2024/02/08 10:55:19;;;;;;;0.80;0.70;;;10.40;99.90;;;;;;5069162;28;20230;-74
2024/02/08 11:01:12;;;;;;;1.23;0.90;;;10.50;99.90;;;;;;5087860;27;20536;-74
2024/02/08 11:03:43;;;;;;;1.60;0.85;;;10.50;99.90;;;;;;5071605;28;20609;-75
2024/02/08 11:06:26;;;;;;;0.80;0.77;;;10.60;99.90;;;;;;5076353;28;20665;-75
2024/02/08 11:09:09;;;;;;;0.80;0.80;;;10.70;99.90;;;;;;5077945;28;20304;-72
2024/02/08 11:11:39;;;;;;;0.85;0.82;;;10.80;99.90;;;;;;5075774;28;20215;-72
2024/02/08 11:14:11;;;;;;;0.90;0.65;;;10.90;99.90;;;;;;5075791;28;20269;-72
2024/02/08 11:16:42;;;;;;;1.00;0.80;;;10.90;99.90;;;;;;5075616;28;20657;-75
2024/02/08 11:19:16;;;;;;;0.98;0.88;;;11.00;99.90;;;;;;5077131;28;20477;-75
2024/02/08 11:21:44;;;;;;;0.70;0.60;;;11.00;99.90;;;;;;5076407;28;20211;-72
2024/02/08 11:24:27;;;;;;;1.05;0.80;;;11.00;99.90;;;;;;5076837;28;20653;-73
2024/02/08 11:26:57;;;;;;;0.90;0.80;;;11.10;99.90;;;;;;5077502;28;20218;-73
2024/02/08 11:29:27;;;;;;;0.80;0.70;;;11.20;99.90;;;;;;5075247;28;20204;-75
2024/02/08 11:31:59;;;;;;;0.95;0.70;;;11.20;99.90;;;;;;5075144;28;20685;-73
2024/02/08 11:34:33;;;;;;;0.80;0.70;;;11.30;99.90;;;;;;5075298;28;20569;-73
2024/02/08 11:37:17;;;;;;;0.93;0.82;;;11.30;99.90;;;;;;5071138;28;20578;-73
2024/02/08 11:39:46;;;;;;;0.80;0.80;;;11.20;99.90;;;;;;5076846;28;20730;-73
2024/02/08 11:42:16;;;;;;;0.90;0.70;;;11.20;99.90;;;;;;5076794;28;20215;-73
2024/02/08 11:44:43;;;;;;;0.98;0.88;;;11.30;99.90;;;;;;5076901;28;20207;-73
2024/02/08 11:47:23;;;;;;;0.80;0.70;;;11.30;99.90;;;;;;5077593;28;20238;-73
2024/02/08 11:50:00;;;;;;;0.80;0.70;;;11.30;99.90;;;;;;5075698;28;20269;-73
2024/02/08 11:52:28;;;;;;;0.80;0.70;;;11.30;99.90;;;;;;5074608;28;20220;-74
2024/02/08 11:55:05;;;;;;;0.80;0.70;;;11.40;99.90;;;;;;5078732;28;20216;-74
2024/02/08 11:57:40;;;;;;;0.90;0.77;;;11.40;99.90;;;;;;5071741;28;20215;-74
2024/02/08 12:00:16;;;;;;;1.00;0.80;;;11.30;99.90;;;;;;5072084;28;20225;-74
2024/02/08 12:02:56;;;;;;;2.80;1.17;;;11.30;99.90;;;;;;5076984;28;20319;-73
2024/02/08 12:05:25;;;;;;;0.80;0.80;;;11.40;99.90;;;;;;5077333;28;20218;-73
2024/02/08 12:07:52;;;;;;;1.65;0.80;;;11.40;99.90;;;;;;5077749;28;20205;-73
2024/02/08 12:10:22;;;;;;;1.00;0.80;;;11.50;99.90;;;;;;5073078;28;20657;-74
2024/02/08 12:12:53;;;;;;;1.60;0.70;;;11.60;99.90;;;;;;5064593;28;20299;-74
2024/02/08 12:15:20;;;;;;;0.90;0.70;;;11.60;99.90;;;;;;5064385;28;20594;-74
2024/02/08 12:17:51;;;;;;;1.02;0.70;;;11.80;99.90;;;;;;5064166;28;20240;-73
2024/02/08 12:20:18;;;;;;;1.10;0.98;;;11.80;99.90;;;;;;5063831;28;20240;-74
2024/02/08 12:22:53;;;;;;;1.00;0.70;;;11.80;99.90;;;;;;5063772;28;20612;-73
2024/02/08 12:25:20;;;;;;;1.00;0.90;;;11.90;99.90;;;;;;5063925;28;20259;-74
2024/02/08 12:27:51;;;;;;;1.05;0.82;;;11.90;99.90;;;;;;5063695;28;20205;-74
2024/02/08 12:30:22;;;;;;;1.00;0.85;;;12.10;99.90;;;;;;5063955;28;20197;-73
2024/02/08 12:32:52;;;;;;;3.28;0.90;;;12.10;99.90;;;;;;5058544;28;20231;-74
2024/02/08 12:35:21;;;;;;;1.88;0.95;;;12.10;99.90;;;;;;5064358;28;20208;-74
2024/02/08 12:37:49;;;;;;;1.13;0.85;;;12.10;99.90;;;;;;5063300;28;20216;-74
2024/02/08 12:40:18;;;;;;;1.55;1.00;;;12.10;99.90;;;;;;5058865;28;20213;-73
2024/02/08 12:42:46;;;;;;;1.67;1.20;;;12.20;99.90;;;;;;5064532;28;20229;-74
2024/02/08 12:45:17;;;;;;;1.00;0.70;;;12.40;99.90;;;;;;5065034;28;20596;-74
2024/02/08 12:47:49;;;;;;;0.93;0.82;;;12.80;99.90;;;;;;5063839;28;20636;-74
2024/02/08 12:50:17;;;;;;;2.58;1.20;;;12.90;99.90;;;;;;5059554;28;20248;-74
2024/02/08 12:52:44;;;;;;;0.90;0.80;;;13.10;99.90;;;;;;5063649;28;20229;-74
2024/02/08 12:55:19;;;;;;;1.50;0.90;;;13.20;99.90;;;;;;5065828;28;20291;-73
2024/02/08 12:57:57;;;;;;;1.65;1.10;;;13.00;99.90;;;;;;5064237;28;20205;-74
2024/02/08 13:00:24;;;;;;;1.40;0.90;;;12.60;99.90;;;;;;5063438;28;20278;-72
2024/02/08 13:02:54;;;;;;;3.03;1.30;;;12.50;99.90;;;;;;5064966;28;20714;-72
2024/02/08 13:05:28;;;;;;;4.60;1.20;;;12.40;99.90;;;;;;5059375;28;20466;-73
2024/02/08 13:07:59;;;;;;;3.35;1.17;;;12.60;99.90;;;;;;5065169;28;20511;-73
2024/02/08 13:10:28;;;;;;;2.38;0.85;;;12.90;99.90;;;;;;5064069;28;20587;-73
2024/02/08 13:13:10;;;;;;;5.95;1.35;;;13.20;99.90;;;;;;5065905;28;20213;-73
2024/02/08 13:15:37;;;;;;;3.20;1.40;;;13.40;99.90;;;;;;5062865;28;20209;-73
2024/02/08 13:18:09;;;;;;;3.45;1.40;;;13.50;99.90;;;;;;5065749;28;20607;-73
2024/02/08 13:20:37;;;;;;;1.77;1.40;;;13.70;99.90;;;;;;5062959;28;20728;-74
2024/02/08 13:23:04;;;;;;;3.28;1.13;;;13.50;99.90;;;;;;5065700;28;20490;-73
2024/02/08 13:25:31;;;;;;;1.65;1.30;;;13.30;99.90;;;;;;5063724;28;20581;-73
2024/02/08 13:27:59;;;;;;;4.45;2.00;;;13.30;99.90;;;;;;5063432;28;20208;-74
2024/02/08 13:30:29;;;;;;;2.05;1.30;;;13.20;99.90;;;;;;5057903;28;20302;-73
2024/02/08 13:32:58;;;;;;;5.63;1.50;;;13.20;99.90;;;;;;5066144;28;20311;-74
2024/02/08 13:35:26;;;;;;;1.73;1.50;;;13.10;99.90;;;;;;5063633;28;20470;-73
2024/02/08 13:37:56;;;;;;;1.88;1.20;;;13.20;99.90;;;;;;5058470;28;20527;-74
2024/02/08 13:40:25;;;;;;;5.50;1.47;;;13.10;99.90;;;;;;5055963;28;20283;-73
2024/02/08 13:42:55;;;;;;;5.57;1.92;;;13.20;99.90;;;;;;5057945;28;20484;-74
2024/02/08 13:45:24;;;;;;;4.50;1.90;;;13.50;99.90;;;;;;5055918;28;20198;-73
2024/02/08 13:47:54;;;;;;;3.58;2.17;;;13.40;99.90;;;;;;5055888;28;20205;-73
2024/02/08 13:50:22;;;;;;;2.60;1.90;;;13.60;99.90;;;;;;5044369;28;20216;-74
2024/02/08 13:52:52;;;;;;;2.90;1.37;;;13.90;99.90;;;;;;5038845;28;20562;-73
2024/02/08 13:55:21;;;;;;;4.53;1.70;;;13.70;99.90;;;;;;5058717;28;20955;-73
2024/02/08 13:57:50;;;;;;;3.63;1.60;;;13.40;99.90;;;;;;5058587;28;20995;-72
2024/02/08 14:00:20;;;;;;;9.00;2.00;;;13.20;99.90;;;;;;5054133;28;20951;-72
2024/02/08 14:02:49;;;;;;;2.50;1.40;;;13.00;99.90;;;;;;5056351;28;20858;-72
2024/02/08 14:05:17;;;;;;;5.57;1.40;;;12.90;99.90;;;;;;5054303;28;20469;-72
2024/02/08 14:07:47;;;;;;;2.97;1.67;;;12.90;99.90;;;;;;5055257;28;20464;-72
2024/02/08 14:10:17;;;;;;;2.73;1.53;;;12.80;99.90;;;;;;5056580;28;20318;-72
2024/02/08 14:12:48;;;;;;;3.17;1.92;;;12.90;99.90;;;;;;5064588;28;21000;-72
2024/02/08 14:15:16;;;;;;;4.13;1.50;;;12.80;99.90;;;;;;5056691;28;20300;-73
2024/02/08 14:17:54;;;;;;;3.35;1.73;;;12.70;99.90;;;;;;5054017;28;20589;-73
2024/02/08 14:20:41;;;;;;;8.27;1.80;;;12.70;99.90;;;;;;5052232;28;20225;-72
2024/02/08 14:23:09;;;;;;;4.95;2.10;;;12.70;99.90;;;;;;5052826;28;20763;-72
2024/02/08 14:26:03;;;;;;;4.50;1.77;;;12.70;99.90;;;;;;5052918;28;20233;-72
2024/02/08 14:28:32;;;;;;;3.10;1.63;;;12.70;99.90;;;;;;5052261;28;20640;-72
2024/02/08 14:31:00;;;;;;;3.65;1.85;;;12.60;99.90;;;;;;5051620;28;20201;-72
2024/02/08 14:33:27;;;;;;;2.53;1.33;;;12.60;99.90;;;;;;5051967;28;20221;-73
2024/02/08 14:35:55;;;;;;;3.78;1.50;;;12.50;99.90;;;;;;5054048;28;20209;-73
2024/02/08 14:38:21;;;;;;;3.70;2.38;;;12.70;99.90;;;;;;5052756;28;20297;-72
2024/02/08 14:40:48;;;;;;;5.00;1.70;;;12.80;99.90;;;;;;5053698;28;20217;-73
2024/02/08 14:43:25;;;;;;;1.98;1.77;;;13.00;99.90;;;;;;5052523;28;20217;-73
2024/02/08 14:45:54;;;;;;;7.22;2.35;;;13.10;99.90;;;;;;5052447;28;20205;-73
2024/02/08 14:48:26;;;;;;;8.60;2.15;;;13.10;99.90;;;;;;5051290;28;20209;-73
2024/02/08 14:50:55;;;;;;;3.22;2.00;;;13.10;99.90;;;;;;5052975;28;20205;-72
2024/02/08 14:53:23;;;;;;;3.43;1.90;;;13.00;99.90;;;;;;5052632;28;20221;-73
2024/02/08 14:55:52;;;;;;;3.97;2.10;;;13.00;99.90;;;;;;5051509;28;20521;-73
2024/02/08 14:58:32;;;;;;;6.60;1.90;;;12.90;99.90;;;;;;5062511;28;20485;-73